Time;durP1;ratioP1;P1;durP2;ratioP2;P2;SDS_P1;SDS_P2;PMS_P1;PMS_P2;Temp;Humidity;BMP_temperature;BMP_pressure;BME280_temperature;BME280_humidity;BME280_pressure;Samples;Min_cycle;Max_cycle;Signal;HPM_P1;HPM_P2
2022/12/27 00:01:19;;;;;;;5.20;2.50;;;4.10;1.00;;;;;;5036179;28;20536;-73
2022/12/27 00:03:46;;;;;;;3.20;2.30;;;4.10;1.00;;;;;;5034719;28;20586;-73
2022/12/27 00:06:17;;;;;;;8.20;3.03;;;3.90;1.00;;;;;;5035374;28;20402;-68
2022/12/27 00:08:45;;;;;;;5.53;2.17;;;3.90;1.00;;;;;;5034403;28;20417;-68
2022/12/27 00:11:14;;;;;;;3.63;2.40;;;3.90;1.00;;;;;;5035841;28;20947;-70
2022/12/27 00:13:40;;;;;;;6.80;3.20;;;4.00;1.00;;;;;;5035880;28;20453;-74
2022/12/27 00:16:08;;;;;;;3.33;3.03;;;4.00;1.00;;;;;;5035320;28;20406;-70
2022/12/27 00:18:36;;;;;;;4.43;2.90;;;4.00;1.00;;;;;;5035918;28;20484;-70
2022/12/27 00:21:03;;;;;;;3.20;2.73;;;3.90;1.00;;;;;;5035901;28;20387;-72
2022/12/27 00:23:33;;;;;;;9.40;3.00;;;3.90;1.00;;;;;;5035758;28;20407;-75
2022/12/27 00:26:01;;;;;;;12.17;2.40;;;3.90;1.00;;;;;;5034397;28;20407;-75
2022/12/27 00:28:30;;;;;;;2.63;1.97;;;3.90;1.00;;;;;;5035704;28;20918;-69
2022/12/27 00:30:56;;;;;;;6.93;2.33;;;3.90;1.00;;;;;;5035634;28;20450;-69
2022/12/27 00:33:22;;;;;;;3.30;2.43;;;3.80;1.00;;;;;;5035531;28;20456;-74
2022/12/27 00:35:48;;;;;;;2.10;2.00;;;3.80;1.00;;;;;;5034743;28;20911;-69
2022/12/27 00:38:13;;;;;;;14.53;2.90;;;3.80;1.00;;;;;;5035694;28;20199;-69
2022/12/27 00:40:40;;;;;;;3.30;2.40;;;3.80;1.00;;;;;;5035550;28;20628;-68
2022/12/27 00:43:06;;;;;;;2.97;2.60;;;3.80;1.00;;;;;;5034807;28;20164;-73
2022/12/27 00:45:32;;;;;;;3.70;2.50;;;3.90;1.00;;;;;;5034632;28;20410;-69
2022/12/27 00:47:57;;;;;;;5.93;3.17;;;3.90;1.00;;;;;;5035246;28;20171;-69
2022/12/27 00:50:23;;;;;;;2.33;2.13;;;3.80;1.00;;;;;;5035364;28;20456;-69
2022/12/27 00:52:49;;;;;;;7.90;3.47;;;3.80;1.00;;;;;;5035258;28;20231;-75
2022/12/27 00:55:15;;;;;;;3.47;2.93;;;3.80;1.00;;;;;;5033444;28;20269;-75
2022/12/27 00:57:40;;;;;;;7.90;2.17;;;3.80;1.00;;;;;;5035234;28;20199;-70
2022/12/27 01:00:07;;;;;;;7.00;3.20;;;3.80;1.00;;;;;;5034236;28;20402;-69
2022/12/27 01:02:32;;;;;;;4.70;2.63;;;3.80;1.00;;;;;;5034717;28;20194;-74
2022/12/27 01:04:58;;;;;;;11.20;3.23;;;3.80;1.00;;;;;;5034488;28;20430;-75
2022/12/27 01:07:24;;;;;;;4.70;2.87;;;3.80;1.00;;;;;;5034985;28;20174;-75
2022/12/27 01:09:50;;;;;;;7.60;2.60;;;3.80;1.00;;;;;;5034843;28;20172;-68
2022/12/27 01:12:16;;;;;;;4.17;2.90;;;3.80;1.00;;;;;;5034852;28;20210;-69
2022/12/27 01:14:41;;;;;;;13.13;3.37;;;3.90;1.00;;;;;;5034145;28;20513;-75
2022/12/27 01:17:07;;;;;;;4.87;3.40;;;3.90;1.00;;;;;;5034377;28;20406;-75
2022/12/27 01:19:36;;;;;;;3.03;2.43;;;3.90;1.00;;;;;;5034537;28;20160;-69
2022/12/27 01:22:03;;;;;;;7.73;2.20;;;3.90;1.00;;;;;;5034632;28;20164;-68
2022/12/27 01:24:29;;;;;;;5.40;2.60;;;3.90;1.00;;;;;;5033926;28;20513;-69
2022/12/27 01:26:54;;;;;;;2.87;2.60;;;4.00;1.00;;;;;;5034775;28;20501;-68
2022/12/27 01:29:20;;;;;;;2.53;2.20;;;3.90;1.00;;;;;;5034589;28;20176;-68
2022/12/27 01:31:48;;;;;;;3.03;2.60;;;3.90;1.00;;;;;;5034422;28;20199;-75
2022/12/27 01:34:15;;;;;;;3.93;2.57;;;3.90;1.00;;;;;;5034179;28;20199;-74
2022/12/27 01:36:41;;;;;;;10.20;2.80;;;3.80;1.00;;;;;;5032731;28;20907;-74
2022/12/27 01:39:09;;;;;;;9.40;3.07;;;3.80;1.00;;;;;;5033897;28;20438;-75
2022/12/27 01:44:37;;;;;;;4.30;2.50;;;3.80;1.00;;;;;;5033682;28;20830;-74
2022/12/27 01:47:15;;;;;;;4.03;2.20;;;3.80;1.00;;;;;;5034286;28;20410;-73
2022/12/27 01:49:54;;;;;;;5.53;2.80;;;3.80;1.00;;;;;;5034203;28;20441;-69
2022/12/27 01:52:22;;;;;;;4.40;2.53;;;3.70;1.00;;;;;;5033956;28;20543;-69
2022/12/27 01:54:48;;;;;;;5.63;2.40;;;3.70;1.00;;;;;;5033368;28;20422;-75
2022/12/27 01:57:14;;;;;;;2.13;1.93;;;3.70;1.00;;;;;;5032138;28;20414;-68
2022/12/27 01:59:40;;;;;;;2.80;2.60;;;3.60;1.00;;;;;;5034181;28;20258;-68
2022/12/27 02:02:06;;;;;;;3.60;2.20;;;3.50;1.00;;;;;;5033944;28;20808;-75
2022/12/27 02:04:33;;;;;;;3.70;2.40;;;3.50;1.00;;;;;;5033078;28;20436;-75
2022/12/27 02:07:00;;;;;;;2.30;2.20;;;3.50;1.00;;;;;;5033893;28;20498;-75
2022/12/27 02:09:34;;;;;;;2.47;2.27;;;3.40;1.00;;;;;;5033819;28;20768;-68
2022/12/27 02:12:04;;;;;;;2.20;2.10;;;3.30;1.00;;;;;;5032945;28;20461;-75
2022/12/27 02:14:41;;;;;;;6.60;2.67;;;3.20;1.00;;;;;;5032267;28;20437;-72
2022/12/27 02:17:18;;;;;;;2.50;2.17;;;3.30;1.00;;;;;;5032625;28;20418;-69
2022/12/27 02:20:11;;;;;;;3.03;2.23;;;3.30;1.00;;;;;;5033635;28;20401;-74
2022/12/27 02:25:45;;;;;;;10.30;2.77;;;3.20;1.00;;;;;;5032857;28;20424;-74
2022/12/27 02:28:20;;;;;;;2.60;2.40;;;3.20;1.00;;;;;;5033524;28;20411;-75
2022/12/27 02:30:48;;;;;;;3.13;2.93;;;3.20;1.00;;;;;;5033535;28;20500;-74
2022/12/27 02:33:21;;;;;;;6.80;3.27;;;3.30;1.00;;;;;;5032773;28;20506;-75
2022/12/27 02:36:02;;;;;;;2.83;2.63;;;3.40;8.80;;;;;;5032707;28;20851;-68
2022/12/27 02:38:31;;;;;;;2.90;2.47;;;3.40;8.50;;;;;;5033257;28;20416;-75
2022/12/27 02:59:09;;;;;;;3.90;2.93;;;3.30;1.00;;;;;;5033053;28;20828;-75
2022/12/27 03:04:34;;;;;;;4.00;3.70;;;3.30;9.60;;;;;;5032238;28;20493;-75
2022/12/27 03:07:15;;;;;;;3.47;2.80;;;3.30;12.40;;;;;;5032917;28;20414;-76
2022/12/27 03:16:24;;;;;;;3.87;3.53;;;3.30;27.30;;;;;;5049720;28;20484;-70
2022/12/27 03:19:01;;;;;;;4.00;3.60;;;3.20;46.20;;;;;;5032660;28;20415;-77
2022/12/27 03:27:32;;;;;;;4.03;3.70;;;3.40;90.40;;;;;;5036909;28;20916;-69
2022/12/27 03:33:14;;;;;;;2.90;2.70;;;3.30;98.10;;;;;;5036596;28;20534;-78
2022/12/27 03:38:01;;;;;;;4.10;2.83;;;3.30;99.90;;;;;;5035931;28;20434;-74
2022/12/27 03:38:42;;;;;;;6.87;2.90;;;3.20;99.90;;;;;;5036427;28;20506;-73
2022/12/27 03:43:55;;;;;;;6.40;2.73;;;3.20;99.90;;;;;;5036454;28;20471;-78
2022/12/27 03:46:35;;;;;;;3.67;2.93;;;3.30;99.90;;;;;;5034209;28;20775;-74
2022/12/27 03:49:21;;;;;;;5.73;2.43;;;3.40;99.90;;;;;;5036275;28;20460;-75
2022/12/27 03:51:52;;;;;;;3.53;2.17;;;3.40;99.90;;;;;;5036354;28;20536;-77
2022/12/27 03:54:25;;;;;;;7.23;2.40;;;3.40;99.90;;;;;;5035717;28;20433;-73
2022/12/27 03:57:00;;;;;;;5.23;2.13;;;3.40;99.90;;;;;;5036508;28;20406;-77
2022/12/27 03:59:27;;;;;;;3.20;2.17;;;3.40;99.90;;;;;;5034868;28;20760;-72
2022/12/27 04:01:53;;;;;;;2.83;2.63;;;3.50;99.90;;;;;;5035167;28;20418;-77
2022/12/27 04:04:18;;;;;;;2.80;2.60;;;3.50;99.90;;;;;;5034888;28;20434;-76
2022/12/27 04:06:44;;;;;;;2.03;1.93;;;3.50;99.90;;;;;;5034796;28;20414;-73
2022/12/27 04:36:33;;;;;;;2.50;2.40;;;3.20;99.90;;;;;;5034273;28;20486;-76
2022/12/27 04:38:59;;;;;;;2.27;2.07;;;3.20;99.90;;;;;;5035669;28;20493;-77
2022/12/27 04:55:10;;;;;;;3.67;2.50;;;3.30;99.90;;;;;;5034487;28;20433;-77
2022/12/27 04:57:39;;;;;;;5.63;2.53;;;3.30;99.90;;;;;;5033927;28;20410;-78
2022/12/27 05:02:49;;;;;;;3.27;2.90;;;3.40;99.90;;;;;;5034875;28;20929;-77
2022/12/27 05:05:15;;;;;;;3.33;2.27;;;3.40;99.90;;;;;;5034292;28;20430;-78
2022/12/27 05:15:56;;;;;;;6.70;3.03;;;3.20;99.90;;;;;;5034378;28;20433;-78
2022/12/27 05:18:23;;;;;;;2.60;2.50;;;3.20;99.90;;;;;;5034229;28;20399;-78
2022/12/27 05:20:49;;;;;;;2.50;2.30;;;3.10;99.90;;;;;;5034800;28;20239;-78
2022/12/27 05:25:59;;;;;;;2.83;2.63;;;3.20;99.90;;;;;;5033836;28;20472;-76
2022/12/27 05:28:25;;;;;;;2.07;1.80;;;3.20;99.90;;;;;;5034422;28;20545;-78
2022/12/27 05:30:51;;;;;;;2.33;2.20;;;3.20;99.90;;;;;;5034511;28;20473;-76
2022/12/27 05:33:17;;;;;;;4.60;2.17;;;3.10;99.90;;;;;;5034973;28;20628;-77
2022/12/27 05:35:42;;;;;;;2.33;2.13;;;3.20;99.90;;;;;;5033102;28;20391;-79
2022/12/27 05:38:08;;;;;;;2.47;2.27;;;3.20;99.90;;;;;;5034376;28;20174;-78
2022/12/27 05:40:37;;;;;;;3.03;2.07;;;3.30;99.90;;;;;;5034357;28;20641;-77
2022/12/27 05:43:03;;;;;;;3.93;1.80;;;3.20;99.90;;;;;;5034315;28;20183;-77
2022/12/27 05:45:29;;;;;;;4.77;3.10;;;3.30;99.90;;;;;;5032286;28;20433;-76
2022/12/27 05:47:55;;;;;;;6.00;2.00;;;3.20;99.90;;;;;;5032906;28;20442;-78
2022/12/27 05:50:20;;;;;;;1.87;1.77;;;3.20;99.90;;;;;;5034442;28;20179;-78
2022/12/27 05:52:46;;;;;;;2.70;1.77;;;3.20;99.90;;;;;;5033571;28;20664;-77
2022/12/27 05:55:12;;;;;;;4.00;2.00;;;3.10;99.90;;;;;;5033185;28;20195;-77
2022/12/27 05:57:38;;;;;;;7.23;2.10;;;3.00;99.90;;;;;;5034066;28;20194;-77
2022/12/27 06:00:04;;;;;;;3.87;1.90;;;3.00;99.90;;;;;;5032627;28;20168;-77
2022/12/27 06:02:30;;;;;;;1.90;1.80;;;3.00;99.90;;;;;;5033755;28;20505;-77
2022/12/27 06:04:56;;;;;;;4.10;2.07;;;3.10;99.90;;;;;;5033399;28;20513;-77
2022/12/27 06:07:22;;;;;;;2.00;1.90;;;3.00;99.90;;;;;;5032610;28;20222;-77
2022/12/27 06:09:48;;;;;;;2.00;1.90;;;3.00;99.90;;;;;;5033286;28;20182;-79
2022/12/27 06:12:13;;;;;;;1.67;1.57;;;3.00;99.90;;;;;;5033580;28;20682;-78
2022/12/27 06:14:40;;;;;;;2.40;2.10;;;3.00;99.90;;;;;;5032958;28;20517;-77
2022/12/27 06:17:06;;;;;;;4.80;1.90;;;3.00;99.90;;;;;;5033644;28;20209;-77
2022/12/27 06:19:31;;;;;;;1.83;1.73;;;2.90;99.90;;;;;;5033749;28;20407;-77
2022/12/27 06:21:57;;;;;;;2.20;1.53;;;2.80;99.90;;;;;;5032449;28;20421;-77
2022/12/27 06:24:23;;;;;;;4.37;2.23;;;2.80;99.90;;;;;;5032851;28;20214;-78
2022/12/27 06:26:49;;;;;;;2.63;2.20;;;2.80;99.90;;;;;;5033631;28;20266;-77
2022/12/27 06:29:15;;;;;;;1.97;1.80;;;2.80;99.90;;;;;;5033180;28;20183;-78
2022/12/27 06:31:40;;;;;;;1.70;1.60;;;2.80;99.90;;;;;;5033019;28;20187;-78
2022/12/27 06:34:06;;;;;;;2.63;2.10;;;2.70;99.90;;;;;;5031991;28;20274;-78
2022/12/27 06:36:32;;;;;;;2.37;1.53;;;2.70;99.90;;;;;;5032865;28;20346;-76
2022/12/27 06:38:58;;;;;;;2.07;1.97;;;2.60;99.90;;;;;;5033538;28;20198;-77
2022/12/27 06:41:25;;;;;;;1.90;1.80;;;2.70;99.90;;;;;;5033335;28;20411;-77
2022/12/27 06:43:55;;;;;;;1.70;1.60;;;2.60;99.90;;;;;;5033208;28;20414;-71
2022/12/27 06:46:23;;;;;;;10.53;2.20;;;2.70;99.90;;;;;;5032551;28;20457;-75
2022/12/27 06:48:49;;;;;;;2.70;1.90;;;2.70;99.90;;;;;;5032578;28;20410;-75
2022/12/27 06:51:17;;;;;;;1.90;1.60;;;2.70;99.90;;;;;;5031764;28;21028;-70
2022/12/27 06:53:43;;;;;;;3.37;2.03;;;2.80;99.90;;;;;;5033101;28;20879;-75
2022/12/27 06:56:17;;;;;;;1.63;1.53;;;2.80;99.90;;;;;;5029409;28;20422;-71
2022/12/27 06:58:45;;;;;;;1.80;1.70;;;2.70;99.90;;;;;;5031515;28;20195;-77
2022/12/27 07:01:16;;;;;;;1.90;1.80;;;2.70;99.90;;;;;;5033052;28;20420;-76
2022/12/27 07:03:42;;;;;;;1.70;1.60;;;2.70;99.90;;;;;;5032998;28;20775;-76
2022/12/27 07:06:12;;;;;;;1.73;1.50;;;2.70;99.90;;;;;;5032143;28;20419;-77
2022/12/27 07:08:38;;;;;;;11.53;2.00;;;2.60;99.90;;;;;;5032886;28;20969;-77
2022/12/27 07:11:07;;;;;;;2.23;1.90;;;2.70;99.90;;;;;;5032815;28;20456;-76
2022/12/27 07:13:37;;;;;;;3.23;1.40;;;2.60;99.90;;;;;;5033133;28;20179;-76
2022/12/27 07:16:04;;;;;;;1.60;1.50;;;2.70;99.90;;;;;;5032323;28;20406;-76
2022/12/27 07:18:31;;;;;;;1.50;1.40;;;2.70;99.90;;;;;;5032854;28;20414;-77
2022/12/27 07:20:56;;;;;;;1.73;1.63;;;2.70;99.90;;;;;;5031616;28;20410;-76
2022/12/27 07:23:22;;;;;;;2.00;1.60;;;2.70;99.90;;;;;;5032555;28;20428;-76
2022/12/27 07:25:48;;;;;;;1.97;1.77;;;2.70;99.90;;;;;;5030760;28;20496;-77
2022/12/27 07:28:14;;;;;;;1.20;1.10;;;2.70;99.90;;;;;;5032965;28;20174;-77
2022/12/27 07:30:40;;;;;;;2.90;2.10;;;2.70;99.90;;;;;;5032766;28;20187;-76
2022/12/27 07:33:07;;;;;;;2.60;1.63;;;2.80;99.90;;;;;;5032653;28;20839;-76
2022/12/27 07:35:33;;;;;;;3.00;1.97;;;2.80;99.90;;;;;;5032076;28;20432;-76
2022/12/27 07:37:58;;;;;;;1.63;1.50;;;2.80;99.90;;;;;;5032575;28;20410;-77
2022/12/27 07:40:24;;;;;;;2.10;2.00;;;2.80;99.90;;;;;;5031600;28;20251;-77
2022/12/27 07:42:50;;;;;;;9.43;2.40;;;2.80;99.90;;;;;;5031209;28;20182;-76
2022/12/27 07:45:16;;;;;;;1.77;1.67;;;2.80;99.90;;;;;;5031861;28;20495;-76
2022/12/27 07:47:42;;;;;;;1.80;1.70;;;2.80;99.90;;;;;;5031427;28;20633;-77
2022/12/27 07:50:08;;;;;;;1.43;1.33;;;2.80;99.90;;;;;;5032571;28;20489;-76
2022/12/27 07:52:34;;;;;;;13.90;2.23;;;2.90;99.90;;;;;;5032481;28;20195;-76
2022/12/27 07:54:59;;;;;;;3.13;1.60;;;2.80;99.90;;;;;;5030504;28;20834;-77
2022/12/27 07:57:27;;;;;;;2.30;2.10;;;2.80;99.90;;;;;;5031532;28;20182;-76
2022/12/27 07:59:53;;;;;;;1.80;1.70;;;2.80;99.90;;;;;;5031226;28;20258;-77
2022/12/27 08:02:18;;;;;;;3.67;2.10;;;2.80;99.90;;;;;;5031617;28;20518;-75
2022/12/27 08:04:44;;;;;;;2.20;2.10;;;2.80;99.90;;;;;;5030460;28;20195;-75
2022/12/27 08:07:16;;;;;;;6.30;2.00;;;2.80;99.90;;;;;;5031069;28;20590;-77
2022/12/27 08:09:45;;;;;;;2.90;1.80;;;2.80;99.90;;;;;;5032490;28;20225;-76
2022/12/27 08:12:12;;;;;;;2.37;2.13;;;2.80;99.90;;;;;;5035911;28;20450;-76
2022/12/27 08:14:38;;;;;;;3.47;2.03;;;2.80;99.90;;;;;;5035289;28;20421;-76
2022/12/27 08:17:12;;;;;;;7.57;1.83;;;2.70;99.90;;;;;;5035869;28;20392;-77
2022/12/27 08:19:38;;;;;;;7.80;2.80;;;2.80;99.90;;;;;;5035677;28;20417;-76
2022/12/27 08:22:04;;;;;;;5.00;2.20;;;2.80;99.90;;;;;;5034934;28;20411;-75
2022/12/27 08:24:31;;;;;;;2.27;2.00;;;2.80;99.90;;;;;;5035088;28;20684;-76
2022/12/27 08:26:57;;;;;;;3.60;3.30;;;2.80;99.90;;;;;;5035911;28;20767;-76
2022/12/27 08:29:22;;;;;;;3.33;1.67;;;2.80;99.90;;;;;;5035609;28;20429;-77
2022/12/27 08:31:48;;;;;;;4.40;2.77;;;2.80;99.90;;;;;;5035591;28;20499;-70
2022/12/27 08:34:14;;;;;;;2.93;2.60;;;2.80;99.90;;;;;;5035479;28;20198;-75
2022/12/27 08:36:39;;;;;;;1.87;1.77;;;2.80;99.90;;;;;;5034787;28;20171;-77
2022/12/27 08:39:06;;;;;;;2.20;2.00;;;2.90;99.90;;;;;;5034932;28;20708;-75
2022/12/27 08:41:32;;;;;;;3.93;2.20;;;2.90;99.90;;;;;;5035561;28;20258;-75
2022/12/27 08:43:58;;;;;;;7.83;4.37;;;2.90;99.90;;;;;;5034340;28;20434;-75
2022/12/27 08:46:24;;;;;;;2.90;2.13;;;3.00;99.90;;;;;;5033466;28;20422;-77
2022/12/27 08:48:50;;;;;;;12.60;2.90;;;3.00;99.90;;;;;;5035521;28;20172;-77
2022/12/27 08:51:17;;;;;;;3.30;2.57;;;3.10;99.90;;;;;;5035054;28;20449;-74
2022/12/27 08:53:43;;;;;;;19.57;2.77;;;3.10;99.90;;;;;;5034917;28;20893;-75
2022/12/27 08:56:09;;;;;;;19.60;3.13;;;3.20;99.90;;;;;;5034506;28;20768;-74
2022/12/27 08:58:35;;;;;;;7.70;2.37;;;3.30;99.90;;;;;;5035174;28;20402;-76
2022/12/27 09:01:08;;;;;;;3.50;2.83;;;3.40;99.90;;;;;;5034079;28;20406;-76
2022/12/27 09:03:35;;;;;;;14.90;2.60;;;3.40;99.90;;;;;;5035022;28;20403;-78
2022/12/27 09:06:11;;;;;;;8.30;2.50;;;3.40;99.90;;;;;;5034378;28;20390;-76
2022/12/27 09:08:37;;;;;;;3.17;2.23;;;3.30;99.90;;;;;;5035048;28;20879;-76
2022/12/27 09:11:21;;;;;;;7.87;3.03;;;3.30;99.90;;;;;;5032760;28;20558;-75
2022/12/27 09:13:47;;;;;;;5.10;2.80;;;3.30;99.90;;;;;;5026767;28;20429;-76
2022/12/27 09:16:16;;;;;;;2.57;2.23;;;3.40;99.90;;;;;;5033625;28;20406;-75
2022/12/27 09:18:42;;;;;;;2.97;2.73;;;3.30;99.90;;;;;;5034792;28;20402;-75
2022/12/27 09:21:11;;;;;;;5.30;2.07;;;3.20;99.90;;;;;;5033978;28;20421;-76
2022/12/27 09:23:38;;;;;;;4.10;1.70;;;3.20;99.90;;;;;;5034541;28;20406;-76
2022/12/27 09:26:19;;;;;;;2.70;2.50;;;3.20;99.90;;;;;;5032052;28;20541;-77
2022/12/27 09:28:45;;;;;;;2.77;2.43;;;3.20;99.90;;;;;;5034614;28;20406;-77
2022/12/27 09:31:13;;;;;;;4.40;1.70;;;3.20;99.90;;;;;;5034242;28;20449;-77
2022/12/27 09:33:39;;;;;;;3.60;2.70;;;3.20;99.90;;;;;;5034470;28;20488;-76
2022/12/27 09:36:08;;;;;;;3.33;1.93;;;3.30;99.90;;;;;;5032530;28;20673;-75
2022/12/27 09:38:34;;;;;;;7.90;2.00;;;3.40;99.90;;;;;;5033366;28;20760;-77
2022/12/27 09:41:04;;;;;;;8.87;2.67;;;3.40;99.90;;;;;;5034447;28;20944;-75
2022/12/27 09:43:42;;;;;;;3.00;2.20;;;3.40;99.90;;;;;;5034395;28;20445;-77
2022/12/27 09:46:15;;;;;;;4.07;2.23;;;3.40;99.90;;;;;;5032125;28;20412;-75
2022/12/27 09:48:40;;;;;;;2.40;1.83;;;3.50;99.90;;;;;;5034142;28;20409;-76
2022/12/27 09:51:16;;;;;;;13.47;2.57;;;3.60;99.90;;;;;;5033972;28;20418;-75
2022/12/27 09:54:03;;;;;;;2.80;2.60;;;3.60;99.90;;;;;;5033982;28;20164;-76
2022/12/27 09:56:33;;;;;;;6.57;2.60;;;3.60;99.90;;;;;;5033504;28;20408;-74
2022/12/27 09:59:30;;;;;;;2.27;2.17;;;3.60;99.90;;;;;;5034159;28;20434;-74
2022/12/27 10:01:56;;;;;;;5.27;2.03;;;3.60;99.90;;;;;;5039659;28;20418;-74
2022/12/27 10:04:22;;;;;;;4.80;1.87;;;3.50;99.90;;;;;;5033240;28;20426;-76
2022/12/27 10:06:47;;;;;;;2.57;2.30;;;3.50;99.90;;;;;;5032789;28;20175;-77
2022/12/27 10:09:35;;;;;;;2.47;2.20;;;3.60;99.90;;;;;;5033849;28;20175;-76
2022/12/27 10:12:23;;;;;;;3.10;2.30;;;3.60;99.90;;;;;;5033607;28;20193;-74
2022/12/27 10:15:01;;;;;;;7.30;2.53;;;3.60;99.90;;;;;;5033123;28;20936;-74
2022/12/27 10:17:57;;;;;;;3.33;2.10;;;3.70;99.90;;;;;;5033715;28;20401;-76
2022/12/27 10:20:49;;;;;;;5.27;1.93;;;3.70;99.90;;;;;;5033676;28;20402;-74
2022/12/27 10:23:25;;;;;;;1.77;1.67;;;3.80;99.90;;;;;;5033636;28;20402;-76
2022/12/27 10:25:57;;;;;;;7.30;1.87;;;3.90;99.90;;;;;;5032559;28;20425;-76
2022/12/27 10:28:45;;;;;;;2.17;1.50;;;3.90;99.90;;;;;;5033497;28;20948;-73
2022/12/27 10:31:17;;;;;;;1.80;1.70;;;4.00;99.90;;;;;;5033131;28;20796;-73
2022/12/27 10:33:44;;;;;;;9.30;2.00;;;4.00;99.90;;;;;;5032855;28;20394;-74
2022/12/27 10:36:18;;;;;;;3.30;1.47;;;4.00;99.90;;;;;;5032773;28;20409;-73
2022/12/27 10:38:43;;;;;;;1.87;1.40;;;4.00;99.90;;;;;;5033410;28;20456;-73
2022/12/27 10:41:24;;;;;;;1.40;1.30;;;4.10;99.90;;;;;;5033339;28;20407;-76
2022/12/27 10:43:51;;;;;;;1.83;1.73;;;4.00;99.90;;;;;;5033085;28;20175;-73
2022/12/27 10:46:29;;;;;;;8.03;2.00;;;4.20;99.90;;;;;;5032357;28;20402;-74
2022/12/27 10:49:00;;;;;;;3.10;1.60;;;4.10;99.90;;;;;;5033345;28;20412;-75
2022/12/27 10:51:35;;;;;;;1.70;1.60;;;4.10;99.90;;;;;;5033053;28;20461;-72
2022/12/27 10:54:10;;;;;;;1.87;1.77;;;4.10;99.90;;;;;;5031710;28;20653;-75
2022/12/27 10:56:40;;;;;;;1.60;1.50;;;4.00;99.90;;;;;;5032630;28;20434;-73
2022/12/27 10:59:17;;;;;;;2.43;1.40;;;4.00;99.90;;;;;;5033116;28;20394;-73
2022/12/27 11:01:45;;;;;;;6.80;1.70;;;4.00;99.90;;;;;;5034606;28;20436;-73
2022/12/27 11:04:20;;;;;;;1.47;1.37;;;4.00;99.90;;;;;;5028415;28;20959;-74
2022/12/27 11:06:50;;;;;;;4.60;1.40;;;4.10;99.90;;;;;;5032384;28;20481;-75
2022/12/27 11:09:40;;;;;;;5.90;1.93;;;4.20;99.90;;;;;;5034361;28;20779;-74
2022/12/27 11:12:30;;;;;;;5.40;1.50;;;4.20;99.90;;;;;;5033060;28;20955;-75
2022/12/27 11:15:17;;;;;;;2.90;1.40;;;4.30;99.90;;;;;;5033040;28;20516;-74
2022/12/27 11:17:46;;;;;;;1.93;1.80;;;4.30;99.90;;;;;;5052749;28;20904;-71
2022/12/27 11:20:31;;;;;;;2.60;1.57;;;4.40;99.90;;;;;;5052409;28;20880;-73
2022/12/27 11:23:02;;;;;;;6.20;1.77;;;4.50;99.90;;;;;;5048945;28;20544;-72
2022/12/27 11:25:29;;;;;;;1.53;1.40;;;4.60;99.90;;;;;;5028605;28;20543;-71
2022/12/27 11:28:19;;;;;;;1.83;1.73;;;4.70;99.90;;;;;;5019673;28;20437;-71
2022/12/27 11:30:58;;;;;;;5.93;1.90;;;4.70;99.90;;;;;;5025158;28;20525;-71
2022/12/27 11:33:39;;;;;;;1.30;1.17;;;4.60;91.80;;;;;;5032834;28;20433;-70
2022/12/27 11:36:08;;;;;;;1.30;1.20;;;4.50;77.00;;;;;;5032065;28;20398;-73
2022/12/27 11:38:36;;;;;;;1.97;1.87;;;4.40;76.90;;;;;;5032711;28;20406;-70
2022/12/27 11:41:08;;;;;;;1.63;1.53;;;4.30;77.00;;;;;;5029590;28;20492;-70
2022/12/27 11:43:46;;;;;;;2.40;1.80;;;4.40;77.30;;;;;;5030442;28;20426;-72
2022/12/27 11:46:38;;;;;;;6.43;1.80;;;4.40;76.90;;;;;;5033171;28;20443;-70
2022/12/27 11:49:08;;;;;;;4.30;1.37;;;4.40;76.90;;;;;;5035898;28;20479;-72
2022/12/27 11:51:52;;;;;;;2.33;1.80;;;4.30;70.50;;;;;;5034605;28;20876;-71
2022/12/27 11:54:31;;;;;;;1.53;1.43;;;4.30;62.30;;;;;;5035739;28;20493;-72
2022/12/27 11:57:23;;;;;;;1.70;1.60;;;4.30;49.80;;;;;;5036094;28;20463;-71
2022/12/27 12:00:30;;;;;;;5.70;1.77;;;4.30;31.70;;;;;;5031407;28;20517;-70
2022/12/27 12:02:59;;;;;;;3.70;1.83;;;4.10;25.70;;;;;;5035316;28;20514;-72
2022/12/27 12:05:30;;;;;;;1.70;1.60;;;4.10;25.60;;;;;;5035425;28;20418;-71
2022/12/27 12:08:35;;;;;;;3.83;1.90;;;4.10;29.30;;;;;;5036220;28;20397;-71
2022/12/27 12:11:13;;;;;;;2.20;1.60;;;4.10;44.80;;;;;;5032528;28;20434;-70
2022/12/27 12:14:06;;;;;;;2.60;1.50;;;4.00;42.60;;;;;;5032509;28;20433;-70
2022/12/27 12:17:04;;;;;;;2.00;1.80;;;4.00;56.00;;;;;;5032412;28;20524;-69
2022/12/27 12:20:06;;;;;;;1.70;1.60;;;4.00;66.30;;;;;;5036008;28;20408;-71
2022/12/27 12:23:02;;;;;;;1.73;1.63;;;3.90;72.90;;;;;;5035846;28;20406;-71
2022/12/27 12:25:46;;;;;;;2.10;2.00;;;4.00;85.00;;;;;;5032487;28;20445;-71
2022/12/27 12:28:30;;;;;;;2.07;1.60;;;4.00;90.30;;;;;;5034160;28;20414;-71
2022/12/27 12:31:13;;;;;;;3.90;3.53;;;4.00;93.40;;;;;;5033618;28;20437;-70
2022/12/27 12:34:00;;;;;;;2.87;2.37;;;4.10;99.90;;;;;;5035623;28;20410;-70
2022/12/27 12:36:51;;;;;;;1.87;1.77;;;4.20;99.90;;;;;;5032343;28;20467;-70
2022/12/27 12:39:40;;;;;;;2.33;2.13;;;4.30;99.90;;;;;;5035513;28;20893;-72
2022/12/27 12:42:34;;;;;;;2.57;1.87;;;4.30;99.90;;;;;;5034199;28;20450;-70
2022/12/27 12:45:34;;;;;;;10.47;2.70;;;4.40;99.90;;;;;;5020050;28;20932;-70
2022/12/27 12:48:23;;;;;;;2.77;2.03;;;4.40;99.90;;;;;;5015750;28;20406;-72
2022/12/27 12:51:29;;;;;;;3.00;2.77;;;4.40;99.90;;;;;;5015516;28;20431;-73
2022/12/27 12:54:22;;;;;;;2.67;2.47;;;4.40;99.90;;;;;;5015444;28;20428;-70
2022/12/27 12:57:07;;;;;;;5.53;2.43;;;4.40;99.90;;;;;;5014244;28;20487;-72
2022/12/27 13:00:00;;;;;;;2.37;2.17;;;4.50;99.90;;;;;;5015638;28;20411;-71
2022/12/27 13:02:47;;;;;;;6.50;2.73;;;4.50;99.90;;;;;;5021858;28;20444;-69
2022/12/27 13:05:23;;;;;;;10.00;3.30;;;4.50;99.90;;;;;;5014536;28;20505;-70
2022/12/27 13:07:58;;;;;;;11.33;3.70;;;4.50;99.90;;;;;;5015290;28;20429;-73
2022/12/27 13:10:45;;;;;;;5.57;3.00;;;4.60;99.90;;;;;;5015192;28;20881;-69
2022/12/27 13:13:42;;;;;;;6.07;2.73;;;4.70;99.90;;;;;;5014639;28;20451;-72
2022/12/27 13:16:29;;;;;;;6.90;3.10;;;4.80;99.90;;;;;;5014536;28;20969;-69
2022/12/27 13:19:03;;;;;;;11.30;5.20;;;4.80;99.90;;;;;;5015078;28;20448;-72
2022/12/27 13:21:57;;;;;;;6.70;2.83;;;4.80;99.90;;;;;;5014986;28;20416;-72
2022/12/27 13:24:29;;;;;;;7.63;2.73;;;4.90;99.90;;;;;;5016904;28;20471;-70
2022/12/27 13:27:13;;;;;;;9.47;5.10;;;4.80;99.90;;;;;;5014969;28;20407;-70
2022/12/27 13:30:00;;;;;;;6.70;3.27;;;4.80;99.90;;;;;;5014689;28;20407;-72
2022/12/27 13:32:57;;;;;;;7.70;2.70;;;4.70;99.90;;;;;;5014148;28;20858;-70
2022/12/27 13:35:46;;;;;;;6.30;3.17;;;4.60;99.90;;;;;;5014100;28;20433;-69
2022/12/27 13:38:29;;;;;;;2.03;1.57;;;4.50;99.90;;;;;;5014767;28;20905;-72
2022/12/27 13:41:27;;;;;;;8.00;2.23;;;4.50;99.90;;;;;;5014579;28;20403;-71
2022/12/27 13:44:02;;;;;;;10.83;2.07;;;4.50;99.90;;;;;;5029426;28;20429;-68
2022/12/27 13:47:01;;;;;;;9.43;2.73;;;4.50;99.90;;;;;;5016000;28;20433;-69
2022/12/27 13:50:15;;;;;;;4.07;2.40;;;4.40;99.90;;;;;;5027241;28;20530;-71
2022/12/27 13:53:16;;;;;;;5.33;2.67;;;4.30;99.90;;;;;;5017982;28;20477;-73
2022/12/27 13:55:44;;;;;;;3.60;2.30;;;4.20;99.90;;;;;;5013365;28;20415;-65
2022/12/27 13:58:10;;;;;;;6.87;2.10;;;4.30;99.90;;;;;;5014343;28;20801;-70
2022/12/27 14:00:44;;;;;;;5.73;2.40;;;4.30;99.90;;;;;;5030060;28;20549;-67
2022/12/27 14:03:30;;;;;;;8.73;2.53;;;4.40;99.90;;;;;;5034013;28;20178;-70
2022/12/27 14:06:37;;;;;;;4.93;2.73;;;4.30;99.90;;;;;;5030387;28;21056;-71
2022/12/27 14:09:24;;;;;;;6.53;2.30;;;4.20;99.90;;;;;;5031970;28;20895;-70
2022/12/27 14:12:12;;;;;;;4.80;2.70;;;4.20;99.90;;;;;;5033639;28;20486;-70
2022/12/27 14:14:40;;;;;;;5.10;2.60;;;4.10;99.90;;;;;;5028961;28;20802;-69
2022/12/27 14:17:09;;;;;;;4.07;2.40;;;4.10;99.90;;;;;;5031332;28;20441;-73
2022/12/27 14:19:53;;;;;;;4.50;2.60;;;4.10;99.90;;;;;;5033753;28;20391;-70
2022/12/27 14:22:43;;;;;;;2.97;2.67;;;4.10;99.90;;;;;;5033638;28;20493;-74
2022/12/27 14:25:39;;;;;;;3.90;2.50;;;4.10;99.90;;;;;;5028993;28;20520;-74
2022/12/27 14:28:23;;;;;;;6.93;3.03;;;4.10;99.90;;;;;;5032943;28;20409;-73
2022/12/27 14:31:24;;;;;;;2.27;2.00;;;4.20;99.90;;;;;;5023420;28;20422;-70
2022/12/27 14:34:14;;;;;;;8.63;2.63;;;4.20;99.90;;;;;;5022321;28;20439;-73
2022/12/27 14:36:58;;;;;;;4.77;2.43;;;4.20;99.90;;;;;;5013220;28;20914;-71
2022/12/27 14:39:45;;;;;;;9.43;2.40;;;4.10;99.90;;;;;;5028913;28;20892;-73
2022/12/27 14:42:14;;;;;;;5.70;2.47;;;4.10;99.90;;;;;;5032159;28;20440;-71
2022/12/27 14:45:00;;;;;;;6.37;2.20;;;4.10;99.90;;;;;;5012663;28;20407;-70
2022/12/27 14:47:54;;;;;;;2.50;2.30;;;4.10;99.90;;;;;;5012987;28;20410;-69
2022/12/27 14:50:41;;;;;;;8.90;3.37;;;4.00;99.90;;;;;;5013311;28;20928;-72
2022/12/27 14:53:28;;;;;;;4.50;2.63;;;4.00;99.90;;;;;;5013390;28;20843;-69
2022/12/27 14:56:15;;;;;;;9.03;2.97;;;4.10;99.90;;;;;;5012634;28;20415;-73
2022/12/27 14:58:55;;;;;;;4.10;3.10;;;4.10;99.90;;;;;;5012206;28;20403;-75
2022/12/27 15:01:48;;;;;;;3.47;2.30;;;4.10;99.90;;;;;;5013508;28;20407;-71
2022/12/27 15:04:51;;;;;;;3.83;2.37;;;4.10;99.90;;;;;;5012414;28;20580;-72
2022/12/27 15:07:49;;;;;;;5.40;3.13;;;4.10;99.90;;;;;;5013334;28;20453;-70
2022/12/27 15:10:33;;;;;;;3.53;3.07;;;4.10;99.90;;;;;;5013222;28;20469;-70
2022/12/27 15:13:12;;;;;;;3.50;3.20;;;4.10;99.90;;;;;;5013221;28;20447;-70